sensor_id;sensor_type;location;lat;lon;timestamp;temperature;humidity
13074;DHT22;6603;47.066;15.396;2022-07-29T16:42:59;36.10;99.90
13074;DHT22;6603;47.066;15.396;2022-07-29T16:45:25;36.50;99.90
13074;DHT22;6603;47.066;15.396;2022-07-29T16:47:53;36.60;99.90
13074;DHT22;6603;47.066;15.396;2022-07-29T16:50:19;36.30;99.90
13074;DHT22;6603;47.066;15.396;2022-07-29T16:52:45;36.50;99.90
13074;DHT22;6603;47.066;15.396;2022-07-29T16:55:11;35.60;99.90
13074;DHT22;6603;47.066;15.396;2022-07-29T16:57:37;36.10;99.90
13074;DHT22;6603;47.066;15.396;2022-07-29T17:00:04;34.30;99.90
13074;DHT22;6603;47.066;15.396;2022-07-29T17:02:30;32.50;99.90
13074;DHT22;6603;47.066;15.396;2022-07-29T17:04:55;31.50;99.90
13074;DHT22;6603;47.066;15.396;2022-07-29T17:07:23;30.80;99.90
13074;DHT22;6603;47.066;15.396;2022-07-29T17:09:52;30.20;99.90
13074;DHT22;6603;47.066;15.396;2022-07-29T17:12:18;29.70;99.90
13074;DHT22;6603;47.066;15.396;2022-07-29T17:14:44;29.30;99.90
13074;DHT22;6603;47.066;15.396;2022-07-29T17:17:10;29.10;1.00
13074;DHT22;6603;47.066;15.396;2022-07-29T17:19:36;28.90;1.00
13074;DHT22;6603;47.066;15.396;2022-07-29T17:22:03;28.70;1.00
13074;DHT22;6603;47.066;15.396;2022-07-29T17:24:29;28.30;1.00
13074;DHT22;6603;47.066;15.396;2022-07-29T17:26:55;28.00;1.00
13074;DHT22;6603;47.066;15.396;2022-07-29T17:29:21;28.10;1.00
13074;DHT22;6603;47.066;15.396;2022-07-29T17:31:47;27.50;1.00
13074;DHT22;6603;47.066;15.396;2022-07-29T17:34:12;26.90;1.00
13074;DHT22;6603;47.066;15.396;2022-07-29T17:36:38;26.60;1.00
13074;DHT22;6603;47.066;15.396;2022-07-29T17:39:06;26.30;1.00
13074;DHT22;6603;47.066;15.396;2022-07-29T17:41:32;26.00;1.00
13074;DHT22;6603;47.066;15.396;2022-07-29T17:43:58;25.90;1.00
13074;DHT22;6603;47.066;15.396;2022-07-29T17:46:26;26.00;30.90
13074;DHT22;6603;47.066;15.396;2022-07-29T17:48:53;26.10;1.00
13074;DHT22;6603;47.066;15.396;2022-07-29T17:51:21;26.30;1.00
13074;DHT22;6603;47.066;15.396;2022-07-29T17:53:47;26.10;1.00
13074;DHT22;6603;47.066;15.396;2022-07-29T17:56:13;25.80;12.00
13074;DHT22;6603;47.066;15.396;2022-07-29T17:58:39;25.70;1.00
13074;DHT22;6603;47.066;15.396;2022-07-29T18:01:05;25.60;1.00
13074;DHT22;6603;47.066;15.396;2022-07-29T18:03:31;25.50;1.00
13074;DHT22;6603;47.066;15.396;2022-07-29T18:05:57;25.50;1.00
13074;DHT22;6603;47.066;15.396;2022-07-29T18:08:23;25.30;1.00
13074;DHT22;6603;47.066;15.396;2022-07-29T18:10:50;25.00;1.00
13074;DHT22;6603;47.066;15.396;2022-07-29T18:13:16;24.80;1.00
13074;DHT22;6603;47.066;15.396;2022-07-29T18:15:43;24.70;99.90
13074;DHT22;6603;47.066;15.396;2022-07-29T18:18:17;24.40;99.90
13074;DHT22;6603;47.066;15.396;2022-07-29T18:20:44;24.50;1.00
13074;DHT22;6603;47.066;15.396;2022-07-29T18:23:10;24.40;99.90
13074;DHT22;6603;47.066;15.396;2022-07-29T18:25:37;24.50;1.00
13074;DHT22;6603;47.066;15.396;2022-07-29T18:28:04;24.10;1.00
13074;DHT22;6603;47.066;15.396;2022-07-29T18:30:31;24.10;99.90
13074;DHT22;6603;47.066;15.396;2022-07-29T18:33:04;24.10;99.90
13074;DHT22;6603;47.066;15.396;2022-07-29T18:35:31;24.00;99.90
13074;DHT22;6603;47.066;15.396;2022-07-29T18:37:56;24.00;99.90
13074;DHT22;6603;47.066;15.396;2022-07-29T18:40:22;24.00;99.90
13074;DHT22;6603;47.066;15.396;2022-07-29T18:42:50;23.80;99.90
13074;DHT22;6603;47.066;15.396;2022-07-29T18:45:16;23.60;1.00
13074;DHT22;6603;47.066;15.396;2022-07-29T18:47:42;23.40;1.00
13074;DHT22;6603;47.066;15.396;2022-07-29T18:50:08;23.40;1.00
13074;DHT22;6603;47.066;15.396;2022-07-29T18:52:35;23.60;1.00
13074;DHT22;6603;47.066;15.396;2022-07-29T18:55:01;23.60;99.90
13074;DHT22;6603;47.066;15.396;2022-07-29T18:57:27;23.40;1.00
13074;DHT22;6603;47.066;15.396;2022-07-29T18:59:53;23.30;1.00
13074;DHT22;6603;47.066;15.396;2022-07-29T19:02:21;23.20;85.80
13074;DHT22;6603;47.066;15.396;2022-07-29T19:04:48;23.00;1.00
13074;DHT22;6603;47.066;15.396;2022-07-29T19:07:16;23.00;1.00
13074;DHT22;6603;47.066;15.396;2022-07-29T19:09:43;23.00;99.90
13074;DHT22;6603;47.066;15.396;2022-07-29T19:12:10;23.10;1.00
13074;DHT22;6603;47.066;15.396;2022-07-29T19:14:36;23.00;1.00
13074;DHT22;6603;47.066;15.396;2022-07-29T19:17:03;22.80;1.00
13074;DHT22;6603;47.066;15.396;2022-07-29T19:19:29;22.70;1.00
13074;DHT22;6603;47.066;15.396;2022-07-29T19:21:55;22.70;1.00
13074;DHT22;6603;47.066;15.396;2022-07-29T19:24:20;22.70;99.90
13074;DHT22;6603;47.066;15.396;2022-07-29T19:26:46;22.70;99.90
13074;DHT22;6603;47.066;15.396;2022-07-29T19:29:13;22.80;99.90
13074;DHT22;6603;47.066;15.396;2022-07-29T19:31:39;23.00;1.00
13074;DHT22;6603;47.066;15.396;2022-07-29T19:34:05;23.00;1.00
13074;DHT22;6603;47.066;15.396;2022-07-29T19:36:31;23.00;1.00
13074;DHT22;6603;47.066;15.396;2022-07-29T19:38:57;22.90;1.00
13074;DHT22;6603;47.066;15.396;2022-07-29T19:41:25;22.90;99.90
13074;DHT22;6603;47.066;15.396;2022-07-29T19:43:52;22.90;1.00
13074;DHT22;6603;47.066;15.396;2022-07-29T19:46:19;22.90;1.00
13074;DHT22;6603;47.066;15.396;2022-07-29T19:48:45;22.60;1.00
13074;DHT22;6603;47.066;15.396;2022-07-29T19:51:11;22.60;99.90
13074;DHT22;6603;47.066;15.396;2022-07-29T19:53:36;22.60;1.00
13074;DHT22;6603;47.066;15.396;2022-07-29T19:56:03;22.60;99.90
13074;DHT22;6603;47.066;15.396;2022-07-29T19:58:28;22.60;75.80
13074;DHT22;6603;47.066;15.396;2022-07-29T20:00:54;22.50;1.00
13074;DHT22;6603;47.066;15.396;2022-07-29T20:03:20;22.60;99.90
13074;DHT22;6603;47.066;15.396;2022-07-29T20:05:46;22.90;1.00
13074;DHT22;6603;47.066;15.396;2022-07-29T20:08:16;23.30;1.00
13074;DHT22;6603;47.066;15.396;2022-07-29T20:10:42;23.60;99.90
13074;DHT22;6603;47.066;15.396;2022-07-29T20:13:08;23.70;1.00
13074;DHT22;6603;47.066;15.396;2022-07-29T20:15:33;23.60;1.00
13074;DHT22;6603;47.066;15.396;2022-07-29T20:17:59;23.40;1.00
13074;DHT22;6603;47.066;15.396;2022-07-29T20:20:25;23.30;99.90
13074;DHT22;6603;47.066;15.396;2022-07-29T20:22:52;23.00;1.00
13074;DHT22;6603;47.066;15.396;2022-07-29T20:25:18;22.90;1.00
13074;DHT22;6603;47.066;15.396;2022-07-29T20:27:44;22.70;7.80
13074;DHT22;6603;47.066;15.396;2022-07-29T20:30:09;22.50;1.00
13074;DHT22;6603;47.066;15.396;2022-07-29T20:32:39;22.30;1.00
13074;DHT22;6603;47.066;15.396;2022-07-29T20:35:06;22.00;25.40
13074;DHT22;6603;47.066;15.396;2022-07-29T20:37:32;21.70;99.90
13074;DHT22;6603;47.066;15.396;2022-07-29T20:39:58;21.40;99.90
13074;DHT22;6603;47.066;15.396;2022-07-29T20:42:24;21.30;99.90
13074;DHT22;6603;47.066;15.396;2022-07-29T20:44:49;21.00;99.90
13074;DHT22;6603;47.066;15.396;2022-07-29T20:47:18;21.00;99.90
13074;DHT22;6603;47.066;15.396;2022-07-29T20:49:45;20.90;99.90
13074;DHT22;6603;47.066;15.396;2022-07-29T20:52:11;20.70;99.90
13074;DHT22;6603;47.066;15.396;2022-07-29T20:54:37;20.50;99.90
13074;DHT22;6603;47.066;15.396;2022-07-29T20:57:03;20.40;57.10
13074;DHT22;6603;47.066;15.396;2022-07-29T20:59:29;20.10;99.90
13074;DHT22;6603;47.066;15.396;2022-07-29T21:01:54;20.10;99.90
13074;DHT22;6603;47.066;15.396;2022-07-29T21:04:20;20.00;99.90
13074;DHT22;6603;47.066;15.396;2022-07-29T21:06:46;20.00;99.90
13074;DHT22;6603;47.066;15.396;2022-07-29T21:09:12;20.20;99.90
13074;DHT22;6603;47.066;15.396;2022-07-29T21:11:38;20.10;99.90
13074;DHT22;6603;47.066;15.396;2022-07-29T21:14:03;20.10;99.90
13074;DHT22;6603;47.066;15.396;2022-07-29T21:16:29;20.10;99.90
13074;DHT22;6603;47.066;15.396;2022-07-29T21:18:58;20.10;99.90
13074;DHT22;6603;47.066;15.396;2022-07-29T21:21:24;20.30;99.90
13074;DHT22;6603;47.066;15.396;2022-07-29T21:23:51;20.20;99.90
13074;DHT22;6603;47.066;15.396;2022-07-29T21:26:18;20.10;99.90
13074;DHT22;6603;47.066;15.396;2022-07-29T21:28:44;20.00;99.90
13074;DHT22;6603;47.066;15.396;2022-07-29T21:31:11;19.90;99.90
13074;DHT22;6603;47.066;15.396;2022-07-29T21:33:39;19.60;99.90
13074;DHT22;6603;47.066;15.396;2022-07-29T21:36:06;19.40;99.90
13074;DHT22;6603;47.066;15.396;2022-07-29T21:38:32;19.40;99.90
13074;DHT22;6603;47.066;15.396;2022-07-29T21:40:59;19.50;99.90
13074;DHT22;6603;47.066;15.396;2022-07-29T21:43:25;19.30;99.90
13074;DHT22;6603;47.066;15.396;2022-07-29T21:45:56;19.30;99.90
13074;DHT22;6603;47.066;15.396;2022-07-29T21:48:23;19.30;99.90
13074;DHT22;6603;47.066;15.396;2022-07-29T21:50:50;19.30;99.90
13074;DHT22;6603;47.066;15.396;2022-07-29T21:53:16;19.40;99.90
13074;DHT22;6603;47.066;15.396;2022-07-29T21:55:42;19.10;99.90
13074;DHT22;6603;47.066;15.396;2022-07-29T21:58:08;19.20;99.90
13074;DHT22;6603;47.066;15.396;2022-07-29T22:00:35;19.30;99.90
13074;DHT22;6603;47.066;15.396;2022-07-29T22:03:04;19.30;99.90
13074;DHT22;6603;47.066;15.396;2022-07-29T22:05:30;19.30;99.90
13074;DHT22;6603;47.066;15.396;2022-07-29T22:07:57;19.20;99.90
13074;DHT22;6603;47.066;15.396;2022-07-29T22:10:24;19.20;99.90
13074;DHT22;6603;47.066;15.396;2022-07-29T22:12:51;19.10;99.90
13074;DHT22;6603;47.066;15.396;2022-07-29T22:15:17;19.10;99.90
13074;DHT22;6603;47.066;15.396;2022-07-29T22:17:43;19.10;99.90
13074;DHT22;6603;47.066;15.396;2022-07-29T22:20:09;19.10;99.90
13074;DHT22;6603;47.066;15.396;2022-07-29T22:22:35;19.20;99.90
13074;DHT22;6603;47.066;15.396;2022-07-29T22:25:01;19.10;99.90
13074;DHT22;6603;47.066;15.396;2022-07-29T22:27:27;18.90;99.90
13074;DHT22;6603;47.066;15.396;2022-07-29T22:29:53;18.90;99.90
13074;DHT22;6603;47.066;15.396;2022-07-29T22:32:18;19.00;99.90
13074;DHT22;6603;47.066;15.396;2022-07-29T22:34:45;18.80;99.90
13074;DHT22;6603;47.066;15.396;2022-07-29T22:37:11;18.70;99.90
13074;DHT22;6603;47.066;15.396;2022-07-29T22:39:37;18.90;99.90
13074;DHT22;6603;47.066;15.396;2022-07-29T22:42:03;18.80;99.90
13074;DHT22;6603;47.066;15.396;2022-07-29T22:44:29;18.80;99.90
13074;DHT22;6603;47.066;15.396;2022-07-29T22:46:55;18.70;99.90
13074;DHT22;6603;47.066;15.396;2022-07-29T22:49:20;18.60;99.90
13074;DHT22;6603;47.066;15.396;2022-07-29T22:51:46;18.60;99.90
13074;DHT22;6603;47.066;15.396;2022-07-29T22:54:12;18.50;99.90
13074;DHT22;6603;47.066;15.396;2022-07-29T22:56:38;18.70;99.90
13074;DHT22;6603;47.066;15.396;2022-07-29T22:59:04;18.70;99.90
13074;DHT22;6603;47.066;15.396;2022-07-29T23:01:30;18.70;99.90
13074;DHT22;6603;47.066;15.396;2022-07-29T23:03:56;18.60;99.90
13074;DHT22;6603;47.066;15.396;2022-07-29T23:06:22;18.60;99.90
13074;DHT22;6603;47.066;15.396;2022-07-29T23:08:48;18.60;99.90
13074;DHT22;6603;47.066;15.396;2022-07-29T23:11:13;18.60;99.90
13074;DHT22;6603;47.066;15.396;2022-07-29T23:13:39;18.50;99.90
13074;DHT22;6603;47.066;15.396;2022-07-29T23:16:05;18.50;99.90
13074;DHT22;6603;47.066;15.396;2022-07-29T23:18:31;18.50;99.90
13074;DHT22;6603;47.066;15.396;2022-07-29T23:20:57;18.50;99.90
13074;DHT22;6603;47.066;15.396;2022-07-29T23:23:23;18.60;99.90
13074;DHT22;6603;47.066;15.396;2022-07-29T23:25:48;18.60;99.90
13074;DHT22;6603;47.066;15.396;2022-07-29T23:28:14;18.70;99.90
13074;DHT22;6603;47.066;15.396;2022-07-29T23:30:41;18.70;99.90
13074;DHT22;6603;47.066;15.396;2022-07-29T23:33:07;18.70;99.90
13074;DHT22;6603;47.066;15.396;2022-07-29T23:35:32;18.80;99.90
13074;DHT22;6603;47.066;15.396;2022-07-29T23:37:58;18.80;99.90
13074;DHT22;6603;47.066;15.396;2022-07-29T23:40:24;18.70;99.90
13074;DHT22;6603;47.066;15.396;2022-07-29T23:42:50;18.70;99.90
13074;DHT22;6603;47.066;15.396;2022-07-29T23:45:16;18.70;99.90
13074;DHT22;6603;47.066;15.396;2022-07-29T23:47:42;18.80;99.90
13074;DHT22;6603;47.066;15.396;2022-07-29T23:50:10;18.80;99.90
13074;DHT22;6603;47.066;15.396;2022-07-29T23:52:40;18.80;99.90
13074;DHT22;6603;47.066;15.396;2022-07-29T23:55:06;18.90;99.90
13074;DHT22;6603;47.066;15.396;2022-07-29T23:57:32;18.80;99.90
13074;DHT22;6603;47.066;15.396;2022-07-29T23:59:58;18.90;99.90
